sensor_id;sensor_type;location;lat;lon;timestamp;temperature;humidity
39899;DHT22;25571;47.876;10.642;2023-07-13T00:00:26;18.60;99.90
39899;DHT22;25571;47.876;10.642;2023-07-13T00:02:51;18.60;99.90
39899;DHT22;25571;47.876;10.642;2023-07-13T00:05:20;18.40;99.90
39899;DHT22;25571;47.876;10.642;2023-07-13T00:07:46;18.40;99.90
39899;DHT22;25571;47.876;10.642;2023-07-13T00:10:11;18.40;99.90
39899;DHT22;25571;47.876;10.642;2023-07-13T00:12:37;18.40;99.90
39899;DHT22;25571;47.876;10.642;2023-07-13T00:15:04;18.20;99.90
39899;DHT22;25571;47.876;10.642;2023-07-13T00:17:30;18.20;99.90
39899;DHT22;25571;47.876;10.642;2023-07-13T00:19:56;18.20;99.90
39899;DHT22;25571;47.876;10.642;2023-07-13T00:22:22;18.30;99.90
39899;DHT22;25571;47.876;10.642;2023-07-13T00:24:49;18.30;99.90
39899;DHT22;25571;47.876;10.642;2023-07-13T00:27:14;18.30;99.90
39899;DHT22;25571;47.876;10.642;2023-07-13T00:29:40;18.30;99.90
39899;DHT22;25571;47.876;10.642;2023-07-13T00:32:06;18.30;99.90
39899;DHT22;25571;47.876;10.642;2023-07-13T00:34:32;18.40;99.90
39899;DHT22;25571;47.876;10.642;2023-07-13T00:36:58;18.30;99.90
39899;DHT22;25571;47.876;10.642;2023-07-13T00:39:23;18.30;99.90
39899;DHT22;25571;47.876;10.642;2023-07-13T00:41:49;18.20;99.90
39899;DHT22;25571;47.876;10.642;2023-07-13T00:44:15;18.30;99.90
39899;DHT22;25571;47.876;10.642;2023-07-13T00:46:41;18.30;99.90
39899;DHT22;25571;47.876;10.642;2023-07-13T00:49:08;18.20;99.90
39899;DHT22;25571;47.876;10.642;2023-07-13T00:51:39;18.10;99.90
39899;DHT22;25571;47.876;10.642;2023-07-13T00:54:07;18.10;99.90
39899;DHT22;25571;47.876;10.642;2023-07-13T00:56:33;18.10;99.90
39899;DHT22;25571;47.876;10.642;2023-07-13T00:58:59;18.20;99.90
39899;DHT22;25571;47.876;10.642;2023-07-13T01:01:25;18.20;99.90
39899;DHT22;25571;47.876;10.642;2023-07-13T01:03:51;18.20;99.90
39899;DHT22;25571;47.876;10.642;2023-07-13T01:06:16;18.10;99.90
39899;DHT22;25571;47.876;10.642;2023-07-13T01:08:42;18.10;99.90
39899;DHT22;25571;47.876;10.642;2023-07-13T01:11:08;18.00;99.90
39899;DHT22;25571;47.876;10.642;2023-07-13T01:13:33;18.00;99.90
39899;DHT22;25571;47.876;10.642;2023-07-13T01:16:01;18.00;99.90
39899;DHT22;25571;47.876;10.642;2023-07-13T01:18:28;18.00;99.90
39899;DHT22;25571;47.876;10.642;2023-07-13T01:23:20;18.00;99.90
39899;DHT22;25571;47.876;10.642;2023-07-13T01:25:45;18.00;99.90
39899;DHT22;25571;47.876;10.642;2023-07-13T01:28:11;18.00;99.90
39899;DHT22;25571;47.876;10.642;2023-07-13T01:30:36;18.00;99.90
39899;DHT22;25571;47.876;10.642;2023-07-13T01:33:03;18.00;99.90
39899;DHT22;25571;47.876;10.642;2023-07-13T01:35:29;18.00;99.90
39899;DHT22;25571;47.876;10.642;2023-07-13T01:37:54;17.90;99.90
39899;DHT22;25571;47.876;10.642;2023-07-13T01:40:22;17.90;99.90
39899;DHT22;25571;47.876;10.642;2023-07-13T01:42:47;17.90;99.90
39899;DHT22;25571;47.876;10.642;2023-07-13T01:45:13;17.90;99.90
39899;DHT22;25571;47.876;10.642;2023-07-13T01:47:38;17.70;99.90
39899;DHT22;25571;47.876;10.642;2023-07-13T01:50:04;17.70;99.90
39899;DHT22;25571;47.876;10.642;2023-07-13T01:52:30;17.70;99.90
39899;DHT22;25571;47.876;10.642;2023-07-13T01:54:55;17.70;99.90
39899;DHT22;25571;47.876;10.642;2023-07-13T01:57:21;17.70;99.90
39899;DHT22;25571;47.876;10.642;2023-07-13T01:59:46;17.70;99.90
39899;DHT22;25571;47.876;10.642;2023-07-13T02:02:12;17.70;99.90
39899;DHT22;25571;47.876;10.642;2023-07-13T02:04:37;17.60;99.90
39899;DHT22;25571;47.876;10.642;2023-07-13T02:07:03;17.70;99.90
39899;DHT22;25571;47.876;10.642;2023-07-13T02:09:28;17.70;99.90
39899;DHT22;25571;47.876;10.642;2023-07-13T02:11:54;17.70;99.90
39899;DHT22;25571;47.876;10.642;2023-07-13T02:14:19;17.50;99.90
39899;DHT22;25571;47.876;10.642;2023-07-13T02:16:45;17.50;99.90
39899;DHT22;25571;47.876;10.642;2023-07-13T02:19:10;17.60;99.90
39899;DHT22;25571;47.876;10.642;2023-07-13T02:21:36;17.60;99.90
39899;DHT22;25571;47.876;10.642;2023-07-13T02:24:01;17.70;99.90
39899;DHT22;25571;47.876;10.642;2023-07-13T02:26:27;17.70;99.90
39899;DHT22;25571;47.876;10.642;2023-07-13T02:28:52;17.70;99.90
39899;DHT22;25571;47.876;10.642;2023-07-13T02:31:18;17.70;99.90
39899;DHT22;25571;47.876;10.642;2023-07-13T02:33:43;17.70;99.90
39899;DHT22;25571;47.876;10.642;2023-07-13T02:36:09;17.70;99.90
39899;DHT22;25571;47.876;10.642;2023-07-13T02:38:34;17.80;99.90
39899;DHT22;25571;47.876;10.642;2023-07-13T02:41:01;17.70;99.90
39899;DHT22;25571;47.876;10.642;2023-07-13T02:43:27;17.80;99.90
39899;DHT22;25571;47.876;10.642;2023-07-13T02:45:52;17.80;99.90
39899;DHT22;25571;47.876;10.642;2023-07-13T02:48:18;17.80;99.90
39899;DHT22;25571;47.876;10.642;2023-07-13T02:50:44;17.90;99.90
39899;DHT22;25571;47.876;10.642;2023-07-13T02:53:09;17.90;99.90
39899;DHT22;25571;47.876;10.642;2023-07-13T02:55:35;17.90;99.90
39899;DHT22;25571;47.876;10.642;2023-07-13T02:58:00;17.90;99.90
39899;DHT22;25571;47.876;10.642;2023-07-13T03:00:26;18.00;99.90
39899;DHT22;25571;47.876;10.642;2023-07-13T03:02:53;18.00;99.90
39899;DHT22;25571;47.876;10.642;2023-07-13T03:05:18;18.00;99.90
39899;DHT22;25571;47.876;10.642;2023-07-13T03:07:44;17.90;99.90
39899;DHT22;25571;47.876;10.642;2023-07-13T03:10:09;17.90;99.90
39899;DHT22;25571;47.876;10.642;2023-07-13T03:12:35;17.90;99.90
39899;DHT22;25571;47.876;10.642;2023-07-13T03:15:00;17.90;99.90
39899;DHT22;25571;47.876;10.642;2023-07-13T03:17:26;17.90;99.90
39899;DHT22;25571;47.876;10.642;2023-07-13T03:19:51;17.90;99.90
39899;DHT22;25571;47.876;10.642;2023-07-13T03:22:17;17.90;99.90
39899;DHT22;25571;47.876;10.642;2023-07-13T03:24:43;17.80;99.90
39899;DHT22;25571;47.876;10.642;2023-07-13T03:27:08;17.80;99.90
39899;DHT22;25571;47.876;10.642;2023-07-13T03:29:34;17.80;99.90
39899;DHT22;25571;47.876;10.642;2023-07-13T03:32:00;17.80;99.90
39899;DHT22;25571;47.876;10.642;2023-07-13T03:34:25;17.80;99.90
39899;DHT22;25571;47.876;10.642;2023-07-13T03:36:53;17.80;99.90
39899;DHT22;25571;47.876;10.642;2023-07-13T03:39:19;17.70;99.90
39899;DHT22;25571;47.876;10.642;2023-07-13T03:41:44;17.80;99.90
39899;DHT22;25571;47.876;10.642;2023-07-13T03:44:10;17.80;99.90
39899;DHT22;25571;47.876;10.642;2023-07-13T03:46:35;17.80;99.90
39899;DHT22;25571;47.876;10.642;2023-07-13T03:49:01;17.90;99.90
39899;DHT22;25571;47.876;10.642;2023-07-13T03:51:26;17.90;99.90
39899;DHT22;25571;47.876;10.642;2023-07-13T03:53:52;17.90;99.90
39899;DHT22;25571;47.876;10.642;2023-07-13T03:56:17;18.00;99.90
39899;DHT22;25571;47.876;10.642;2023-07-13T03:58:44;17.90;99.90
39899;DHT22;25571;47.876;10.642;2023-07-13T04:01:11;17.90;99.90
39899;DHT22;25571;47.876;10.642;2023-07-13T04:03:36;17.90;99.90
39899;DHT22;25571;47.876;10.642;2023-07-13T04:06:03;17.90;99.90
39899;DHT22;25571;47.876;10.642;2023-07-13T04:08:30;17.90;99.90
39899;DHT22;25571;47.876;10.642;2023-07-13T04:10:56;17.90;99.90
39899;DHT22;25571;47.876;10.642;2023-07-13T04:13:22;17.90;99.90
39899;DHT22;25571;47.876;10.642;2023-07-13T04:15:47;17.80;99.90
39899;DHT22;25571;47.876;10.642;2023-07-13T04:18:13;17.80;99.90
39899;DHT22;25571;47.876;10.642;2023-07-13T04:20:38;17.80;99.90
39899;DHT22;25571;47.876;10.642;2023-07-13T04:23:04;17.90;99.90
39899;DHT22;25571;47.876;10.642;2023-07-13T04:25:29;17.90;99.90
39899;DHT22;25571;47.876;10.642;2023-07-13T04:27:55;17.90;99.90
39899;DHT22;25571;47.876;10.642;2023-07-13T04:30:21;17.70;99.90
39899;DHT22;25571;47.876;10.642;2023-07-13T04:32:47;17.70;99.90
39899;DHT22;25571;47.876;10.642;2023-07-13T04:35:12;17.80;99.90
39899;DHT22;25571;47.876;10.642;2023-07-13T04:37:39;17.80;99.90
39899;DHT22;25571;47.876;10.642;2023-07-13T04:40:05;17.70;99.90
39899;DHT22;25571;47.876;10.642;2023-07-13T04:42:31;17.70;99.90
39899;DHT22;25571;47.876;10.642;2023-07-13T04:44:56;17.60;99.90
39899;DHT22;25571;47.876;10.642;2023-07-13T04:47:22;17.60;99.90
39899;DHT22;25571;47.876;10.642;2023-07-13T04:49:47;17.60;99.90
39899;DHT22;25571;47.876;10.642;2023-07-13T04:52:13;17.80;99.90
39899;DHT22;25571;47.876;10.642;2023-07-13T04:54:38;17.70;99.90
39899;DHT22;25571;47.876;10.642;2023-07-13T04:57:04;17.80;99.90
39899;DHT22;25571;47.876;10.642;2023-07-13T04:59:34;17.70;99.90
39899;DHT22;25571;47.876;10.642;2023-07-13T05:02:00;17.80;99.90
39899;DHT22;25571;47.876;10.642;2023-07-13T05:04:26;17.90;99.90
39899;DHT22;25571;47.876;10.642;2023-07-13T05:06:52;17.90;99.90
39899;DHT22;25571;47.876;10.642;2023-07-13T05:09:17;17.90;99.90
39899;DHT22;25571;47.876;10.642;2023-07-13T05:11:43;17.90;99.90
39899;DHT22;25571;47.876;10.642;2023-07-13T05:14:09;17.90;99.90
39899;DHT22;25571;47.876;10.642;2023-07-13T05:16:35;18.00;99.90
39899;DHT22;25571;47.876;10.642;2023-07-13T05:19:00;18.00;99.90
39899;DHT22;25571;47.876;10.642;2023-07-13T05:21:26;18.10;99.90
39899;DHT22;25571;47.876;10.642;2023-07-13T05:23:51;18.20;99.90
39899;DHT22;25571;47.876;10.642;2023-07-13T05:26:17;18.30;99.90
39899;DHT22;25571;47.876;10.642;2023-07-13T05:28:42;18.30;99.90
39899;DHT22;25571;47.876;10.642;2023-07-13T05:31:08;18.30;99.90
39899;DHT22;25571;47.876;10.642;2023-07-13T05:33:34;18.30;99.90
39899;DHT22;25571;47.876;10.642;2023-07-13T05:35:59;18.30;99.90
39899;DHT22;25571;47.876;10.642;2023-07-13T05:38:28;18.30;99.90
39899;DHT22;25571;47.876;10.642;2023-07-13T05:40:54;18.30;99.90
39899;DHT22;25571;47.876;10.642;2023-07-13T05:43:20;18.20;99.90
39899;DHT22;25571;47.876;10.642;2023-07-13T05:45:46;18.20;99.90
39899;DHT22;25571;47.876;10.642;2023-07-13T05:48:11;18.20;99.90
39899;DHT22;25571;47.876;10.642;2023-07-13T05:50:37;18.20;99.90
39899;DHT22;25571;47.876;10.642;2023-07-13T05:53:03;18.20;99.90
39899;DHT22;25571;47.876;10.642;2023-07-13T05:55:28;18.20;99.90
39899;DHT22;25571;47.876;10.642;2023-07-13T05:57:54;18.10;99.90
39899;DHT22;25571;47.876;10.642;2023-07-13T06:00:19;18.10;99.90
39899;DHT22;25571;47.876;10.642;2023-07-13T06:02:45;18.00;99.90
39899;DHT22;25571;47.876;10.642;2023-07-13T06:05:10;18.10;99.90
39899;DHT22;25571;47.876;10.642;2023-07-13T06:07:36;18.00;99.90
39899;DHT22;25571;47.876;10.642;2023-07-13T06:10:01;18.10;99.90
39899;DHT22;25571;47.876;10.642;2023-07-13T06:12:27;18.10;99.90
39899;DHT22;25571;47.876;10.642;2023-07-13T06:14:52;18.10;99.90
39899;DHT22;25571;47.876;10.642;2023-07-13T06:17:18;18.10;99.90
39899;DHT22;25571;47.876;10.642;2023-07-13T06:19:43;18.10;99.90
39899;DHT22;25571;47.876;10.642;2023-07-13T06:22:09;18.20;99.90
39899;DHT22;25571;47.876;10.642;2023-07-13T06:24:35;18.20;99.90
39899;DHT22;25571;47.876;10.642;2023-07-13T06:27:00;18.10;99.90
39899;DHT22;25571;47.876;10.642;2023-07-13T06:29:26;18.10;99.90
39899;DHT22;25571;47.876;10.642;2023-07-13T06:31:51;18.00;99.90
39899;DHT22;25571;47.876;10.642;2023-07-13T06:34:17;18.00;99.90
39899;DHT22;25571;47.876;10.642;2023-07-13T06:36:43;18.00;99.90
39899;DHT22;25571;47.876;10.642;2023-07-13T06:39:09;18.00;99.90
39899;DHT22;25571;47.876;10.642;2023-07-13T06:41:34;17.90;99.90
39899;DHT22;25571;47.876;10.642;2023-07-13T06:44:00;18.00;99.90
39899;DHT22;25571;47.876;10.642;2023-07-13T06:46:25;17.90;99.90
39899;DHT22;25571;47.876;10.642;2023-07-13T06:48:51;17.90;99.90
39899;DHT22;25571;47.876;10.642;2023-07-13T06:51:16;17.90;99.90
39899;DHT22;25571;47.876;10.642;2023-07-13T06:53:42;17.90;99.90
39899;DHT22;25571;47.876;10.642;2023-07-13T06:56:10;17.90;99.90
39899;DHT22;25571;47.876;10.642;2023-07-13T06:58:36;17.80;99.90
39899;DHT22;25571;47.876;10.642;2023-07-13T07:01:02;17.90;99.90
39899;DHT22;25571;47.876;10.642;2023-07-13T07:03:27;17.80;99.90
39899;DHT22;25571;47.876;10.642;2023-07-13T07:05:53;17.70;99.90
39899;DHT22;25571;47.876;10.642;2023-07-13T07:08:18;17.60;99.90
39899;DHT22;25571;47.876;10.642;2023-07-13T07:10:44;17.60;99.90
39899;DHT22;25571;47.876;10.642;2023-07-13T07:13:10;17.40;99.90
39899;DHT22;25571;47.876;10.642;2023-07-13T07:15:36;17.40;99.90
39899;DHT22;25571;47.876;10.642;2023-07-13T07:18:01;17.40;99.90
39899;DHT22;25571;47.876;10.642;2023-07-13T07:20:27;17.40;99.90
39899;DHT22;25571;47.876;10.642;2023-07-13T07:22:52;17.40;99.90
39899;DHT22;25571;47.876;10.642;2023-07-13T07:25:18;17.50;99.90
39899;DHT22;25571;47.876;10.642;2023-07-13T07:27:44;17.70;99.90
39899;DHT22;25571;47.876;10.642;2023-07-13T07:30:10;17.60;99.90
39899;DHT22;25571;47.876;10.642;2023-07-13T07:32:35;17.50;99.90
39899;DHT22;25571;47.876;10.642;2023-07-13T07:35:01;17.70;99.90
39899;DHT22;25571;47.876;10.642;2023-07-13T07:37:26;17.80;99.90
39899;DHT22;25571;47.876;10.642;2023-07-13T07:39:52;18.00;99.90
39899;DHT22;25571;47.876;10.642;2023-07-13T07:42:17;18.00;99.90
39899;DHT22;25571;47.876;10.642;2023-07-13T07:44:43;18.00;99.90
39899;DHT22;25571;47.876;10.642;2023-07-13T07:47:08;18.00;99.90
39899;DHT22;25571;47.876;10.642;2023-07-13T07:49:35;18.00;99.90
39899;DHT22;25571;47.876;10.642;2023-07-13T07:52:00;18.00;99.90
39899;DHT22;25571;47.876;10.642;2023-07-13T07:54:26;18.10;99.90
39899;DHT22;25571;47.876;10.642;2023-07-13T07:56:51;18.10;99.90
39899;DHT22;25571;47.876;10.642;2023-07-13T07:59:18;18.10;99.90
39899;DHT22;25571;47.876;10.642;2023-07-13T08:01:44;18.10;99.90
39899;DHT22;25571;47.876;10.642;2023-07-13T08:04:11;18.10;99.90
39899;DHT22;25571;47.876;10.642;2023-07-13T08:06:37;18.00;99.90
39899;DHT22;25571;47.876;10.642;2023-07-13T08:09:02;18.00;99.90
39899;DHT22;25571;47.876;10.642;2023-07-13T08:11:29;18.00;99.90
39899;DHT22;25571;47.876;10.642;2023-07-13T08:13:55;18.00;99.90
39899;DHT22;25571;47.876;10.642;2023-07-13T08:16:20;17.90;99.90
39899;DHT22;25571;47.876;10.642;2023-07-13T08:18:46;17.70;99.90
39899;DHT22;25571;47.876;10.642;2023-07-13T08:21:12;17.60;99.90
39899;DHT22;25571;47.876;10.642;2023-07-13T08:23:37;17.60;99.90
39899;DHT22;25571;47.876;10.642;2023-07-13T08:26:04;17.70;99.90
39899;DHT22;25571;47.876;10.642;2023-07-13T08:28:29;17.80;99.90
39899;DHT22;25571;47.876;10.642;2023-07-13T08:30:55;17.70;99.90
39899;DHT22;25571;47.876;10.642;2023-07-13T08:33:21;17.60;99.90
39899;DHT22;25571;47.876;10.642;2023-07-13T08:35:51;17.70;99.90
39899;DHT22;25571;47.876;10.642;2023-07-13T08:38:16;17.60;99.90
39899;DHT22;25571;47.876;10.642;2023-07-13T08:40:42;17.60;99.90
39899;DHT22;25571;47.876;10.642;2023-07-13T08:43:13;17.70;99.90
39899;DHT22;25571;47.876;10.642;2023-07-13T08:45:44;17.60;99.90
39899;DHT22;25571;47.876;10.642;2023-07-13T08:48:11;17.60;99.90
39899;DHT22;25571;47.876;10.642;2023-07-13T08:50:42;17.60;99.90
39899;DHT22;25571;47.876;10.642;2023-07-13T08:53:10;17.50;99.90
39899;DHT22;25571;47.876;10.642;2023-07-13T08:55:36;17.60;99.90
39899;DHT22;25571;47.876;10.642;2023-07-13T08:58:09;17.60;99.90
39899;DHT22;25571;47.876;10.642;2023-07-13T09:00:48;17.70;99.90
39899;DHT22;25571;47.876;10.642;2023-07-13T09:03:24;17.80;99.90
39899;DHT22;25571;47.876;10.642;2023-07-13T09:05:53;18.00;99.90
39899;DHT22;25571;47.876;10.642;2023-07-13T09:16:19;18.30;99.90
39899;DHT22;25571;47.876;10.642;2023-07-13T09:18:46;18.20;99.90
39899;DHT22;25571;47.876;10.642;2023-07-13T09:21:17;18.20;99.90
39899;DHT22;25571;47.876;10.642;2023-07-13T09:23:43;18.10;99.90
39899;DHT22;25571;47.876;10.642;2023-07-13T09:28:37;18.20;99.90
39899;DHT22;25571;47.876;10.642;2023-07-13T09:31:04;18.30;99.90
39899;DHT22;25571;47.876;10.642;2023-07-13T09:33:31;18.50;99.90
39899;DHT22;25571;47.876;10.642;2023-07-13T09:35:57;18.50;99.90
39899;DHT22;25571;47.876;10.642;2023-07-13T09:38:24;18.70;99.90
39899;DHT22;25571;47.876;10.642;2023-07-13T09:41:07;18.60;99.90
39899;DHT22;25571;47.876;10.642;2023-07-13T09:43:39;18.50;99.90
39899;DHT22;25571;47.876;10.642;2023-07-13T09:46:25;18.90;99.90
39899;DHT22;25571;47.876;10.642;2023-07-13T09:48:50;19.70;99.90
39899;DHT22;25571;47.876;10.642;2023-07-13T09:51:15;20.30;99.90
39899;DHT22;25571;47.876;10.642;2023-07-13T09:53:44;20.60;99.90
39899;DHT22;25571;47.876;10.642;2023-07-13T09:56:22;20.90;99.90
39899;DHT22;25571;47.876;10.642;2023-07-13T09:58:48;21.20;99.90
39899;DHT22;25571;47.876;10.642;2023-07-13T10:01:14;21.40;99.90
39899;DHT22;25571;47.876;10.642;2023-07-13T10:03:51;21.50;99.90
39899;DHT22;25571;47.876;10.642;2023-07-13T10:06:17;21.60;99.90
39899;DHT22;25571;47.876;10.642;2023-07-13T10:08:44;22.00;99.90
39899;DHT22;25571;47.876;10.642;2023-07-13T10:13:46;22.40;99.90
39899;DHT22;25571;47.876;10.642;2023-07-13T10:16:14;22.40;99.90
39899;DHT22;25571;47.876;10.642;2023-07-13T10:18:48;22.70;99.90
39899;DHT22;25571;47.876;10.642;2023-07-13T10:21:18;22.50;99.90
39899;DHT22;25571;47.876;10.642;2023-07-13T10:23:51;22.20;99.90
39899;DHT22;25571;47.876;10.642;2023-07-13T10:26:21;21.90;99.90
39899;DHT22;25571;47.876;10.642;2023-07-13T10:28:49;21.50;99.90
39899;DHT22;25571;47.876;10.642;2023-07-13T10:31:16;21.30;99.90
39899;DHT22;25571;47.876;10.642;2023-07-13T10:33:42;21.20;99.90
39899;DHT22;25571;47.876;10.642;2023-07-13T10:38:39;21.00;99.90
39899;DHT22;25571;47.876;10.642;2023-07-13T10:41:12;20.90;99.90
39899;DHT22;25571;47.876;10.642;2023-07-13T10:43:41;20.80;99.90
39899;DHT22;25571;47.876;10.642;2023-07-13T10:46:08;20.90;99.90
39899;DHT22;25571;47.876;10.642;2023-07-13T10:48:35;21.00;99.90
39899;DHT22;25571;47.876;10.642;2023-07-13T10:51:03;21.20;99.90
39899;DHT22;25571;47.876;10.642;2023-07-13T10:53:32;21.10;99.90
39899;DHT22;25571;47.876;10.642;2023-07-13T10:55:59;21.20;99.90
39899;DHT22;25571;47.876;10.642;2023-07-13T10:58:43;21.10;99.90
39899;DHT22;25571;47.876;10.642;2023-07-13T11:01:10;20.90;99.90
39899;DHT22;25571;47.876;10.642;2023-07-13T11:03:38;20.90;99.90
39899;DHT22;25571;47.876;10.642;2023-07-13T11:06:16;20.70;99.90
39899;DHT22;25571;47.876;10.642;2023-07-13T11:19:37;20.20;99.90
39899;DHT22;25571;47.876;10.642;2023-07-13T11:22:00;20.40;99.90
39899;DHT22;25571;47.876;10.642;2023-07-13T11:24:28;20.70;99.90
39899;DHT22;25571;47.876;10.642;2023-07-13T11:26:56;20.90;99.90
39899;DHT22;25571;47.876;10.642;2023-07-13T11:31:54;21.30;99.90
39899;DHT22;25571;47.876;10.642;2023-07-13T11:34:21;21.20;99.90
39899;DHT22;25571;47.876;10.642;2023-07-13T11:36:49;21.30;99.90
39899;DHT22;25571;47.876;10.642;2023-07-13T11:39:17;21.50;99.90
39899;DHT22;25571;47.876;10.642;2023-07-13T11:41:44;21.90;99.90
39899;DHT22;25571;47.876;10.642;2023-07-13T11:44:12;22.00;99.90
39899;DHT22;25571;47.876;10.642;2023-07-13T11:46:38;22.10;99.90
39899;DHT22;25571;47.876;10.642;2023-07-13T11:49:05;22.10;99.90
39899;DHT22;25571;47.876;10.642;2023-07-13T11:51:31;22.00;99.90
39899;DHT22;25571;47.876;10.642;2023-07-13T11:53:58;22.10;99.90
39899;DHT22;25571;47.876;10.642;2023-07-13T11:56:25;22.20;99.90
39899;DHT22;25571;47.876;10.642;2023-07-13T11:58:51;22.10;99.90
39899;DHT22;25571;47.876;10.642;2023-07-13T12:01:19;22.10;99.90
39899;DHT22;25571;47.876;10.642;2023-07-13T12:03:45;21.90;99.90
39899;DHT22;25571;47.876;10.642;2023-07-13T12:06:30;22.00;99.90
39899;DHT22;25571;47.876;10.642;2023-07-13T12:08:57;22.20;99.90
39899;DHT22;25571;47.876;10.642;2023-07-13T12:11:23;22.20;99.90
39899;DHT22;25571;47.876;10.642;2023-07-13T12:13:49;22.20;99.90
39899;DHT22;25571;47.876;10.642;2023-07-13T12:16:22;22.20;99.90
39899;DHT22;25571;47.876;10.642;2023-07-13T12:18:50;22.20;99.90
39899;DHT22;25571;47.876;10.642;2023-07-13T12:21:17;22.20;99.90
39899;DHT22;25571;47.876;10.642;2023-07-13T12:23:44;22.30;99.90
39899;DHT22;25571;47.876;10.642;2023-07-13T12:26:10;22.30;99.90
39899;DHT22;25571;47.876;10.642;2023-07-13T12:28:38;22.40;99.90
39899;DHT22;25571;47.876;10.642;2023-07-13T12:33:48;22.70;99.90
39899;DHT22;25571;47.876;10.642;2023-07-13T12:36:21;22.60;99.90
39899;DHT22;25571;47.876;10.642;2023-07-13T12:38:46;22.30;99.90
39899;DHT22;25571;47.876;10.642;2023-07-13T12:41:12;22.30;99.90
39899;DHT22;25571;47.876;10.642;2023-07-13T12:43:37;22.40;99.90
39899;DHT22;25571;47.876;10.642;2023-07-13T12:46:05;22.20;99.90
39899;DHT22;25571;47.876;10.642;2023-07-13T12:48:41;21.90;99.90
39899;DHT22;25571;47.876;10.642;2023-07-13T12:51:09;22.20;99.90
39899;DHT22;25571;47.876;10.642;2023-07-13T12:53:39;22.50;99.90
39899;DHT22;25571;47.876;10.642;2023-07-13T12:56:05;22.70;99.90
39899;DHT22;25571;47.876;10.642;2023-07-13T13:00:56;22.70;99.90
39899;DHT22;25571;47.876;10.642;2023-07-13T13:06:00;22.70;99.90
39899;DHT22;25571;47.876;10.642;2023-07-13T13:08:28;22.90;99.90
39899;DHT22;25571;47.876;10.642;2023-07-13T13:10:54;23.10;99.90
39899;DHT22;25571;47.876;10.642;2023-07-13T13:13:19;23.30;99.90
39899;DHT22;25571;47.876;10.642;2023-07-13T13:15:45;23.40;99.90
39899;DHT22;25571;47.876;10.642;2023-07-13T13:18:17;23.50;99.90
39899;DHT22;25571;47.876;10.642;2023-07-13T13:20:43;23.50;99.90
39899;DHT22;25571;47.876;10.642;2023-07-13T13:23:15;23.40;99.90
39899;DHT22;25571;47.876;10.642;2023-07-13T13:25:46;23.10;99.90
39899;DHT22;25571;47.876;10.642;2023-07-13T13:28:13;22.90;99.90
39899;DHT22;25571;47.876;10.642;2023-07-13T13:30:40;22.60;99.90
39899;DHT22;25571;47.876;10.642;2023-07-13T13:33:08;22.70;99.90
39899;DHT22;25571;47.876;10.642;2023-07-13T13:35:34;22.60;99.90
39899;DHT22;25571;47.876;10.642;2023-07-13T13:37:59;22.60;99.90
39899;DHT22;25571;47.876;10.642;2023-07-13T13:40:25;22.60;99.90
39899;DHT22;25571;47.876;10.642;2023-07-13T13:42:53;22.80;99.90
39899;DHT22;25571;47.876;10.642;2023-07-13T13:45:21;22.90;99.90
39899;DHT22;25571;47.876;10.642;2023-07-13T13:47:46;23.00;99.90
39899;DHT22;25571;47.876;10.642;2023-07-13T13:50:17;23.00;99.90
39899;DHT22;25571;47.876;10.642;2023-07-13T13:52:43;23.00;99.90
39899;DHT22;25571;47.876;10.642;2023-07-13T13:55:13;22.90;99.90
39899;DHT22;25571;47.876;10.642;2023-07-13T13:57:39;22.80;99.90
39899;DHT22;25571;47.876;10.642;2023-07-13T14:00:04;22.80;99.90
39899;DHT22;25571;47.876;10.642;2023-07-13T14:02:30;22.60;99.90
39899;DHT22;25571;47.876;10.642;2023-07-13T14:04:58;22.50;99.90
39899;DHT22;25571;47.876;10.642;2023-07-13T14:07:24;22.60;99.90
39899;DHT22;25571;47.876;10.642;2023-07-13T14:09:51;22.70;99.90
39899;DHT22;25571;47.876;10.642;2023-07-13T14:12:17;22.90;99.90
39899;DHT22;25571;47.876;10.642;2023-07-13T14:14:43;22.90;99.90
39899;DHT22;25571;47.876;10.642;2023-07-13T14:17:30;22.80;99.90
39899;DHT22;25571;47.876;10.642;2023-07-13T14:19:55;22.80;99.90
39899;DHT22;25571;47.876;10.642;2023-07-13T14:22:24;22.70;99.90
39899;DHT22;25571;47.876;10.642;2023-07-13T14:24:51;22.60;99.90
39899;DHT22;25571;47.876;10.642;2023-07-13T14:27:17;22.60;99.90
39899;DHT22;25571;47.876;10.642;2023-07-13T14:29:42;22.70;99.90
39899;DHT22;25571;47.876;10.642;2023-07-13T14:32:09;22.80;99.90
39899;DHT22;25571;47.876;10.642;2023-07-13T14:34:35;22.80;99.90
39899;DHT22;25571;47.876;10.642;2023-07-13T14:37:01;22.90;99.90
39899;DHT22;25571;47.876;10.642;2023-07-13T14:39:26;23.00;99.90
39899;DHT22;25571;47.876;10.642;2023-07-13T14:41:54;23.10;99.90
39899;DHT22;25571;47.876;10.642;2023-07-13T14:44:21;23.20;99.90
39899;DHT22;25571;47.876;10.642;2023-07-13T14:46:48;23.20;99.90
39899;DHT22;25571;47.876;10.642;2023-07-13T14:51:39;23.30;99.90
39899;DHT22;25571;47.876;10.642;2023-07-13T14:54:05;23.20;99.90
39899;DHT22;25571;47.876;10.642;2023-07-13T14:56:33;23.10;99.90
39899;DHT22;25571;47.876;10.642;2023-07-13T14:58:58;23.10;99.90
39899;DHT22;25571;47.876;10.642;2023-07-13T15:01:24;23.20;99.90
39899;DHT22;25571;47.876;10.642;2023-07-13T15:03:50;23.20;99.90
39899;DHT22;25571;47.876;10.642;2023-07-13T15:06:16;23.20;99.90
39899;DHT22;25571;47.876;10.642;2023-07-13T15:08:42;23.10;99.90
39899;DHT22;25571;47.876;10.642;2023-07-13T15:11:08;23.20;99.90
39899;DHT22;25571;47.876;10.642;2023-07-13T15:13:33;23.20;99.90
39899;DHT22;25571;47.876;10.642;2023-07-13T15:16:00;23.30;99.90
39899;DHT22;25571;47.876;10.642;2023-07-13T15:18:26;23.30;99.90
39899;DHT22;25571;47.876;10.642;2023-07-13T15:20:52;23.20;99.90
39899;DHT22;25571;47.876;10.642;2023-07-13T15:23:21;23.10;99.90
39899;DHT22;25571;47.876;10.642;2023-07-13T15:25:48;23.10;99.90
39899;DHT22;25571;47.876;10.642;2023-07-13T15:28:14;23.30;99.90
39899;DHT22;25571;47.876;10.642;2023-07-13T15:30:46;23.00;99.90
39899;DHT22;25571;47.876;10.642;2023-07-13T15:33:15;23.10;99.90
39899;DHT22;25571;47.876;10.642;2023-07-13T15:35:42;23.10;99.90
39899;DHT22;25571;47.876;10.642;2023-07-13T15:38:15;23.10;99.90
39899;DHT22;25571;47.876;10.642;2023-07-13T15:40:41;23.30;99.90
39899;DHT22;25571;47.876;10.642;2023-07-13T15:43:11;23.30;99.90
39899;DHT22;25571;47.876;10.642;2023-07-13T15:45:37;23.40;99.90
39899;DHT22;25571;47.876;10.642;2023-07-13T15:48:10;23.50;99.90
39899;DHT22;25571;47.876;10.642;2023-07-13T15:50:40;23.50;99.90
39899;DHT22;25571;47.876;10.642;2023-07-13T15:53:08;23.60;99.90